createdAt,value
2019-02-12T00:01:58.061Z,73.60
2019-02-12T00:04:30.316Z,73.56
2019-02-12T00:07:02.399Z,73.52
2019-02-12T00:09:34.705Z,73.42
2019-02-12T00:12:06.900Z,73.52
2019-02-12T00:14:39.224Z,73.50
2019-02-12T00:17:11.465Z,73.38
2019-02-12T00:19:43.732Z,73.40
2019-02-12T00:22:15.914Z,73.46
2019-02-12T00:24:48.101Z,73.56
2019-02-12T00:27:21.176Z,73.61
2019-02-12T00:29:53.858Z,73.71
2019-02-12T00:32:26.174Z,73.70
2019-02-12T00:34:58.311Z,73.65
2019-02-12T00:37:30.428Z,73.67
2019-02-12T00:40:02.621Z,73.55
2019-02-12T00:42:35.892Z,73.57
2019-02-12T00:45:08.265Z,73.57
2019-02-12T00:47:40.334Z,73.55
2019-02-12T00:50:12.661Z,73.66
2019-02-12T00:52:44.837Z,73.63
2019-02-12T00:55:16.951Z,73.68
2019-02-12T00:57:49.048Z,73.56
2019-02-12T01:00:21.236Z,73.52
2019-02-12T01:02:54.403Z,73.63
2019-02-12T01:05:26.534Z,73.69
2019-02-12T01:07:58.673Z,73.66
2019-02-12T01:10:31.178Z,73.52
2019-02-12T01:13:03.354Z,73.39
2019-02-12T01:15:35.524Z,73.53
2019-02-12T01:18:07.879Z,73.36
2019-02-12T01:20:40.027Z,73.43
2019-02-12T01:23:12.202Z,73.49
2019-02-12T01:25:44.412Z,73.51
2019-02-12T01:28:16.717Z,73.43
2019-02-12T01:30:48.823Z,73.52
2019-02-12T01:33:21.158Z,73.43
2019-02-12T01:35:53.450Z,73.54
2019-02-12T01:38:25.630Z,73.40
2019-02-12T01:40:57.905Z,73.43
2019-02-12T01:43:30.283Z,73.16
2019-02-12T01:46:02.279Z,72.99
2019-02-12T01:48:34.654Z,72.77
2019-02-12T01:51:06.736Z,72.67
2019-02-12T01:53:38.945Z,72.56
2019-02-12T01:56:11.029Z,72.55
2019-02-12T01:58:43.270Z,72.64
2019-02-12T02:01:15.415Z,72.60
2019-02-12T02:03:47.795Z,72.67
2019-02-12T02:06:20.513Z,72.71
2019-02-12T02:08:52.988Z,72.79
2019-02-12T02:11:25.049Z,72.71
2019-02-12T02:13:57.434Z,72.55
2019-02-12T02:16:29.502Z,72.82
2019-02-12T02:19:01.618Z,72.72
2019-02-12T02:21:34.045Z,72.67
2019-02-12T02:24:06.115Z,72.76
2019-02-12T02:26:38.419Z,72.66
2019-02-12T02:29:10.867Z,72.72
2019-02-12T02:31:43.240Z,72.54
2019-02-12T02:34:15.568Z,72.54
2019-02-12T02:36:48.431Z,72.52
2019-02-12T02:39:20.614Z,72.62
2019-02-12T02:41:52.812Z,72.42
2019-02-12T02:44:25.000Z,72.28
2019-02-12T02:46:57.214Z,72.40
2019-02-12T02:49:29.461Z,72.42
2019-02-12T02:52:01.650Z,72.41
2019-02-12T02:54:33.924Z,72.33
2019-02-12T02:57:06.071Z,72.51
2019-02-12T02:59:38.484Z,72.48
2019-02-12T03:02:10.614Z,72.33
2019-02-12T03:04:43.020Z,72.43
2019-02-12T03:07:15.258Z,72.51
2019-02-12T03:09:47.589Z,72.50
2019-02-12T03:12:19.832Z,72.58
2019-02-12T03:14:52.044Z,72.53
2019-02-12T03:17:25.569Z,72.69
2019-02-12T03:19:57.792Z,72.68
2019-02-12T03:22:30.050Z,72.56
2019-02-12T03:25:02.550Z,72.74
2019-02-12T03:27:34.637Z,72.75
2019-02-12T03:30:07.636Z,72.63
2019-02-12T03:32:40.931Z,72.59
2019-02-12T03:35:13.300Z,72.48
2019-02-12T03:37:45.573Z,72.41
2019-02-12T03:40:17.704Z,72.36
2019-02-12T03:42:49.873Z,72.37
2019-02-12T03:45:22.260Z,72.50
2019-02-12T03:47:54.470Z,72.41
2019-02-12T03:50:26.732Z,72.43
2019-02-12T03:52:58.963Z,72.31
2019-02-12T03:55:31.291Z,72.17
2019-02-12T03:58:03.541Z,72.33
2019-02-12T04:00:35.786Z,72.20
2019-02-12T04:03:11.169Z,72.13
2019-02-12T04:05:43.535Z,72.19
2019-02-12T04:08:26.070Z,72.13
2019-02-12T04:10:58.368Z,72.13
2019-02-12T04:13:30.552Z,72.00
2019-02-12T04:16:02.832Z,72.10
2019-02-12T04:18:37.750Z,72.02
2019-02-12T04:21:10.032Z,71.79
2019-02-12T04:23:45.115Z,71.81
2019-02-12T04:26:17.359Z,71.62
2019-02-12T04:28:49.618Z,71.78
2019-02-12T04:31:22.074Z,71.50
2019-02-12T04:33:54.312Z,71.71
2019-02-12T04:36:26.491Z,71.14
2019-02-12T04:38:58.852Z,71.32
2019-02-12T04:41:30.980Z,71.33
2019-02-12T04:44:03.339Z,71.19
2019-02-12T04:46:35.591Z,70.55
2019-02-12T04:49:07.722Z,70.83
2019-02-12T04:51:39.884Z,71.07
2019-02-12T04:54:13.207Z,70.95
2019-02-12T04:56:45.453Z,70.85
2019-02-12T04:59:17.827Z,71.08
2019-02-12T05:01:49.996Z,71.03
2019-02-12T05:04:22.527Z,70.97
2019-02-12T05:06:54.772Z,71.25
2019-02-12T05:09:27.105Z,71.30
2019-02-12T05:12:03.114Z,71.51
2019-02-12T05:14:35.272Z,71.64
2019-02-12T05:17:07.826Z,71.77
2019-02-12T05:19:40.075Z,71.71
2019-02-12T05:22:12.294Z,71.00
2019-02-12T05:24:44.516Z,70.87
2019-02-12T05:27:16.789Z,70.43
2019-02-12T05:29:49.174Z,69.80
2019-02-12T05:32:21.348Z,70.51
2019-02-12T05:34:55.951Z,70.76
2019-02-12T05:37:29.984Z,70.77
2019-02-12T05:40:06.203Z,70.88
2019-02-12T05:42:38.641Z,70.93
2019-02-12T05:45:11.230Z,71.03
2019-02-12T05:47:43.465Z,70.91
2019-02-12T05:50:15.874Z,70.65
2019-02-12T05:52:54.474Z,70.71
2019-02-12T05:55:21.893Z,70.72
2019-02-12T05:57:54.157Z,70.66
2019-02-12T06:00:31.098Z,70.67
2019-02-12T06:03:03.428Z,70.70
2019-02-12T06:05:35.957Z,70.68
2019-02-12T06:08:08.449Z,70.83
2019-02-12T06:10:40.703Z,70.94
2019-02-12T06:13:12.873Z,70.98
2019-02-12T06:15:45.256Z,71.01
2019-02-12T06:18:18.382Z,71.05
2019-02-12T06:20:52.539Z,71.05
2019-02-12T06:23:24.739Z,71.10
2019-02-12T06:25:57.188Z,71.14
2019-02-12T06:28:31.008Z,71.11
2019-02-12T06:31:03.414Z,71.08
2019-02-12T06:33:35.649Z,70.66
2019-02-12T06:36:07.867Z,70.61
2019-02-12T06:38:40.139Z,70.16
2019-02-12T06:41:13.412Z,70.17
2019-02-12T06:43:46.650Z,69.35
2019-02-12T06:46:19.112Z,69.58
2019-02-12T06:48:51.292Z,69.72
2019-02-12T06:51:23.472Z,69.45
2019-02-12T06:53:55.599Z,69.18
2019-02-12T06:56:27.773Z,69.44
2019-02-12T06:59:00.087Z,69.53
2019-02-12T07:01:32.327Z,69.33
2019-02-12T07:04:06.021Z,68.83
2019-02-12T07:06:47.728Z,68.73
2019-02-12T07:09:30.691Z,69.10
2019-02-12T07:12:24.229Z,69.14
2019-02-12T07:14:58.235Z,69.23
2019-02-12T07:17:52.021Z,69.25
2019-02-12T07:20:34.078Z,69.25
2019-02-12T07:23:21.386Z,68.97
2019-02-12T07:26:11.590Z,69.28
2019-02-12T07:29:11.374Z,69.34
2019-02-12T07:32:02.071Z,69.37
2019-02-12T07:34:40.385Z,69.43
2019-02-12T07:37:37.374Z,69.43
2019-02-12T07:40:31.219Z,69.53
2019-02-12T07:43:40.354Z,69.67
2019-02-12T07:46:41.288Z,69.51
2019-02-12T07:49:34.635Z,69.34
2019-02-12T07:52:18.878Z,69.46
2019-02-12T07:55:03.067Z,69.52
2019-02-12T07:58:02.986Z,69.59
2019-02-12T08:00:46.686Z,69.62
2019-02-12T08:03:33.400Z,69.67
2019-02-12T08:06:19.924Z,69.70
2019-02-12T08:09:11.518Z,69.71
2019-02-12T08:11:55.671Z,69.75
2019-02-12T08:14:58.358Z,69.77
2019-02-12T08:17:47.289Z,69.80
2019-02-12T08:20:41.974Z,69.78
2019-02-12T08:23:40.892Z,69.67
2019-02-12T08:26:30.383Z,69.52
2019-02-12T08:29:07.147Z,69.02
2019-02-12T08:31:57.923Z,69.04
2019-02-12T08:34:47.429Z,69.13
2019-02-12T08:37:36.650Z,69.16
2019-02-12T08:40:22.649Z,69.08
2019-02-12T08:43:01.087Z,68.99
2019-02-12T08:45:47.386Z,69.00
2019-02-12T08:48:36.743Z,69.01
2019-02-12T08:55:22.746Z,68.84
2019-02-12T08:58:31.701Z,68.79
2019-02-12T09:01:09.869Z,68.77
2019-02-12T09:04:12.655Z,68.73
2019-02-12T09:07:06.587Z,68.65
2019-02-12T09:09:56.521Z,68.61
2019-02-12T09:12:46.579Z,68.59
2019-02-12T09:15:37.320Z,68.64
2019-02-12T09:18:27.227Z,68.52
2019-02-12T09:21:13.308Z,68.50
2019-02-12T09:24:19.575Z,68.44
2019-02-12T09:27:14.226Z,68.38
2019-02-12T09:30:13.867Z,68.25
2019-02-12T09:32:58.914Z,68.15
2019-02-12T09:35:41.445Z,68.13
2019-02-12T09:38:36.083Z,68.09
2019-02-12T09:41:19.075Z,68.06
2019-02-12T09:44:03.739Z,68.01
2019-02-12T09:46:55.404Z,67.99
2019-02-12T09:49:42.417Z,67.12
2019-02-12T09:52:37.345Z,66.71
2019-02-12T09:55:34.137Z,66.84
2019-02-12T09:58:12.919Z,67.06
2019-02-12T10:00:48.295Z,67.19
2019-02-12T10:03:42.129Z,67.38
2019-02-12T10:06:45.177Z,67.50
2019-02-12T10:09:34.508Z,67.64
2019-02-12T10:12:12.987Z,67.71
2019-02-12T10:15:04.741Z,67.82
2019-02-12T10:17:49.152Z,67.93
2019-02-12T10:20:25.098Z,68.05
2019-02-12T10:23:22.443Z,68.09
2019-02-12T10:25:57.806Z,68.15
2019-02-12T10:28:48.825Z,68.28
2019-02-12T10:31:25.332Z,68.36
2019-02-12T10:33:57.646Z,68.41
2019-02-12T10:36:29.865Z,68.49
2019-02-12T10:39:02.334Z,68.55
2019-02-12T10:41:35.631Z,68.63
2019-02-12T10:44:09.101Z,68.65
2019-02-12T10:46:41.438Z,68.68
2019-02-12T10:49:13.635Z,68.78
2019-02-12T10:51:45.824Z,68.83
2019-02-12T10:54:17.991Z,68.90
2019-02-12T10:56:50.189Z,68.92
2019-02-12T10:59:22.406Z,69.00
2019-02-12T11:01:55.174Z,69.04
2019-02-12T11:04:27.406Z,69.10
2019-02-12T11:07:05.082Z,69.20
2019-02-12T11:09:37.837Z,69.26
2019-02-12T11:12:10.094Z,69.31
2019-02-12T11:14:42.487Z,69.35
2019-02-12T11:17:14.862Z,69.38
2019-02-12T11:19:46.953Z,69.39
2019-02-12T11:22:19.192Z,69.46
2019-02-12T11:24:51.440Z,69.56
2019-02-12T11:27:23.723Z,69.61
2019-02-12T11:29:55.898Z,69.68
2019-02-12T11:32:29.043Z,69.70
2019-02-12T11:35:01.318Z,69.72
2019-02-12T11:37:33.679Z,69.73
2019-02-12T11:40:05.878Z,69.83
2019-02-12T11:42:38.175Z,69.90
2019-02-12T11:45:10.907Z,69.94
2019-02-12T11:47:42.877Z,69.99
2019-02-12T11:50:15.032Z,70.02
2019-02-12T11:52:47.000Z,70.09
2019-02-12T11:55:19.209Z,70.10
2019-02-12T11:57:51.573Z,70.16
2019-02-12T12:00:28.632Z,70.21
2019-02-12T12:03:00.760Z,70.28
2019-02-12T12:05:32.977Z,70.32
2019-02-12T12:08:05.147Z,70.35
2019-02-12T12:10:37.373Z,70.36
2019-02-12T12:13:09.667Z,70.42
2019-02-12T12:15:41.736Z,70.41
2019-02-12T12:18:14.083Z,70.46
2019-02-12T12:20:46.232Z,70.49
2019-02-12T12:23:18.651Z,70.54
2019-02-12T12:25:50.927Z,70.58
2019-02-12T12:28:23.128Z,70.62
2019-02-12T12:30:55.363Z,70.66
2019-02-12T12:33:27.717Z,70.68
2019-02-12T12:35:59.995Z,70.74
2019-02-12T12:38:32.174Z,70.78
2019-02-12T12:41:04.674Z,70.83
2019-02-12T12:43:36.904Z,70.87
2019-02-12T12:46:09.218Z,70.94
2019-02-12T12:48:41.458Z,70.98
2019-02-12T12:51:14.053Z,71.05
2019-02-12T12:53:47.256Z,71.16
2019-02-12T12:56:19.748Z,71.33
2019-02-12T12:58:53.985Z,71.44
2019-02-12T13:01:26.441Z,71.46
2019-02-12T13:03:58.626Z,71.52
2019-02-12T13:06:42.758Z,71.81
2019-02-12T13:09:16.025Z,71.52
2019-02-12T13:11:48.373Z,71.09
2019-02-12T13:14:20.625Z,71.28
2019-02-12T13:16:53.011Z,70.73
2019-02-12T13:19:25.415Z,70.39
2019-02-12T13:21:57.748Z,70.65
2019-02-12T13:24:31.018Z,70.71
2019-02-12T13:27:03.226Z,70.78
2019-02-12T13:29:36.072Z,70.81
2019-02-12T13:32:08.417Z,70.84
2019-02-12T13:34:40.557Z,70.86
2019-02-12T13:37:13.069Z,70.78
2019-02-12T13:39:45.394Z,70.79
2019-02-12T13:42:17.518Z,70.42
2019-02-12T13:44:49.690Z,70.59
2019-02-12T13:47:21.789Z,70.71
2019-02-12T13:49:53.857Z,70.88
2019-02-12T13:52:25.806Z,71.09
2019-02-12T13:54:57.978Z,71.31
2019-02-12T13:57:30.174Z,71.53
2019-02-12T14:00:02.336Z,71.67
2019-02-12T14:02:35.837Z,71.71
2019-02-12T14:05:10.191Z,71.71
2019-02-12T14:07:45.518Z,71.77
2019-02-12T14:10:20.439Z,71.47
2019-02-12T14:12:52.712Z,71.70
2019-02-12T14:15:30.342Z,71.79
2019-02-12T14:18:02.842Z,71.86
2019-02-12T14:20:34.912Z,71.55
2019-02-12T14:23:07.084Z,71.51
2019-02-12T14:25:39.233Z,71.61
2019-02-12T14:28:11.968Z,71.64
2019-02-12T14:30:44.131Z,71.64
2019-02-12T14:33:16.648Z,71.62
2019-02-12T14:35:48.939Z,71.62
2019-02-12T14:38:21.286Z,71.54
2019-02-12T14:40:53.545Z,71.53
2019-02-12T14:43:25.862Z,71.47
2019-02-12T14:45:57.984Z,71.45
2019-02-12T14:48:30.331Z,71.43
2019-02-12T14:51:02.501Z,71.25
2019-02-12T14:53:34.924Z,71.12
2019-02-12T14:56:11.260Z,71.31
2019-02-12T14:58:40.829Z,71.03
2019-02-12T15:01:13.140Z,71.04
2019-02-12T15:03:45.703Z,71.02
2019-02-12T15:06:17.795Z,70.76
2019-02-12T15:08:51.232Z,71.16
2019-02-12T15:11:23.474Z,71.14
2019-02-12T15:13:55.958Z,71.25
2019-02-12T15:16:28.162Z,71.25
2019-02-12T15:19:00.599Z,71.26
2019-02-12T15:21:33.070Z,71.23
2019-02-12T15:24:05.274Z,71.22
2019-02-12T15:26:37.400Z,71.23
2019-02-12T15:29:09.768Z,71.21
2019-02-12T15:31:43.059Z,71.21
2019-02-12T15:34:15.352Z,71.17
2019-02-12T15:36:47.304Z,71.20
2019-02-12T15:39:20.474Z,71.21
2019-02-12T15:41:52.597Z,71.20
2019-02-12T15:44:24.860Z,71.18
2019-02-12T15:46:57.301Z,71.19
2019-02-12T15:49:29.509Z,71.21
2019-02-12T15:52:01.765Z,71.19
2019-02-12T15:54:33.892Z,71.19
2019-02-12T15:57:06.298Z,71.15
2019-02-12T15:59:38.366Z,70.95
2019-02-12T16:02:11.717Z,71.15
2019-02-12T16:04:48.283Z,71.21
2019-02-12T16:07:22.361Z,71.26
2019-02-12T16:09:56.563Z,71.15
2019-02-12T16:12:28.711Z,71.16
2019-02-12T16:15:01.509Z,71.32
2019-02-12T16:17:35.443Z,71.29
2019-02-12T16:20:10.029Z,71.33
2019-02-12T16:22:43.157Z,71.37
2019-02-12T16:25:15.600Z,71.37
2019-02-12T16:27:47.949Z,71.40
2019-02-12T16:30:22.219Z,71.42
2019-02-12T16:32:54.990Z,71.36
2019-02-12T16:35:27.283Z,71.35
2019-02-12T16:37:59.861Z,71.39
2019-02-12T16:40:31.916Z,71.40
2019-02-12T16:43:04.243Z,71.44
2019-02-12T16:45:39.128Z,71.44
2019-02-12T16:48:12.375Z,71.36
2019-02-12T16:50:46.349Z,71.36
2019-02-12T16:53:21.056Z,71.25
2019-02-12T16:55:55.547Z,71.17
2019-02-12T16:58:32.817Z,71.18
2019-02-12T17:01:05.635Z,71.05
2019-02-12T17:03:38.178Z,71.01
2019-02-12T17:06:11.383Z,70.94
2019-02-12T17:08:43.980Z,70.97
2019-02-12T17:11:17.246Z,70.95
2019-02-12T17:13:49.555Z,70.89
2019-02-12T17:16:21.875Z,70.94
2019-02-12T17:18:54.285Z,70.87
2019-02-12T17:21:26.482Z,70.80
2019-02-12T17:23:58.813Z,70.99
2019-02-12T17:26:31.122Z,71.02
2019-02-12T17:29:04.680Z,71.06
2019-02-12T17:31:36.761Z,71.17
2019-02-12T17:34:09.082Z,71.24
2019-02-12T17:36:41.556Z,71.35
2019-02-12T17:39:13.654Z,71.41
2019-02-12T17:41:45.919Z,71.40
2019-02-12T17:44:18.025Z,71.44
2019-02-12T17:46:50.431Z,71.51
2019-02-12T17:49:22.622Z,71.56
2019-02-12T17:51:56.310Z,71.63
2019-02-12T17:54:28.820Z,71.62
2019-02-12T17:57:01.298Z,71.73
2019-02-12T17:59:33.455Z,71.71
2019-02-12T18:02:05.694Z,71.54
2019-02-12T18:04:37.857Z,71.56
2019-02-12T18:07:10.288Z,71.50
2019-02-12T18:09:42.617Z,71.72
2019-02-12T18:12:14.985Z,71.83
2019-02-12T18:14:48.114Z,71.96
2019-02-12T18:17:20.407Z,71.83
2019-02-12T18:19:53.623Z,71.88
2019-02-12T18:22:26.428Z,71.95
2019-02-12T18:24:58.780Z,72.08
2019-02-12T18:27:30.939Z,72.13
2019-02-12T18:30:03.305Z,71.99
2019-02-12T18:32:35.633Z,72.12
2019-02-12T18:35:08.325Z,71.92
2019-02-12T18:37:40.530Z,71.86
2019-02-12T18:40:13.255Z,71.81
2019-02-12T18:42:45.390Z,71.57
2019-02-12T18:45:17.846Z,71.69
2019-02-12T18:47:49.949Z,71.79
2019-02-12T18:50:22.246Z,71.75
2019-02-12T18:52:55.033Z,71.86
2019-02-12T18:55:27.552Z,71.97
2019-02-12T18:57:59.865Z,71.99
2019-02-12T19:00:31.878Z,72.03
2019-02-12T19:03:04.050Z,72.15
2019-02-12T19:05:36.263Z,72.09
2019-02-12T19:08:08.390Z,72.18
2019-02-12T19:10:40.540Z,72.22
2019-02-12T19:13:13.740Z,72.55
2019-02-12T19:15:45.895Z,72.11
2019-02-12T19:18:19.408Z,71.74
2019-02-12T19:20:51.599Z,71.63
2019-02-12T19:23:23.840Z,71.51
2019-02-12T19:25:56.085Z,71.71
2019-02-12T19:28:28.176Z,71.80
2019-02-12T19:31:00.474Z,71.88
2019-02-12T19:33:32.657Z,71.92
2019-02-12T19:36:05.867Z,71.91
2019-02-12T19:38:38.178Z,71.98
2019-02-12T19:41:10.473Z,71.97
2019-02-12T19:43:42.872Z,71.98
2019-02-12T19:46:15.087Z,72.01
2019-02-12T19:48:47.605Z,72.00
2019-02-12T19:51:19.707Z,72.05
2019-02-12T19:53:52.038Z,72.11
2019-02-12T19:56:25.080Z,72.05
2019-02-12T19:58:57.224Z,72.21
2019-02-12T20:01:29.401Z,72.08
2019-02-12T20:04:01.539Z,72.01
2019-02-12T20:06:33.901Z,72.03
2019-02-12T20:09:08.068Z,71.98
2019-02-12T20:11:40.212Z,72.00
2019-02-12T20:14:12.339Z,72.20
2019-02-12T20:16:44.458Z,72.33
2019-02-12T20:19:16.584Z,72.38
2019-02-12T20:21:49.007Z,72.21
2019-02-12T20:24:21.160Z,72.34
2019-02-12T20:26:53.344Z,72.47
2019-02-12T20:29:26.970Z,72.38
2019-02-12T20:31:59.091Z,72.45
2019-02-12T20:34:31.195Z,72.54
2019-02-12T20:37:03.309Z,72.48
2019-02-12T20:39:35.379Z,72.55
2019-02-12T20:42:07.565Z,72.47
2019-02-12T20:44:39.708Z,72.40
2019-02-12T20:47:11.998Z,72.46
2019-02-12T20:49:45.121Z,72.49
2019-02-12T20:52:17.237Z,72.50
2019-02-12T20:54:49.460Z,72.57
2019-02-12T20:57:21.534Z,72.49
2019-02-12T20:59:54.649Z,72.47
2019-02-12T21:02:26.871Z,72.53
2019-02-12T21:04:59.096Z,72.52
2019-02-12T21:07:31.295Z,72.51
2019-02-12T21:10:03.476Z,72.54
2019-02-12T21:12:35.648Z,72.46
2019-02-12T21:15:11.228Z,72.51
2019-02-12T21:17:43.397Z,72.57
2019-02-12T21:20:15.707Z,72.54
2019-02-12T21:22:47.935Z,72.48
2019-02-12T21:25:20.214Z,72.50
2019-02-12T21:27:52.585Z,72.55
2019-02-12T21:30:24.768Z,72.53
2019-02-12T21:32:57.041Z,72.53
2019-02-12T21:35:29.189Z,72.58
2019-02-12T21:38:01.782Z,72.60
2019-02-12T21:40:33.962Z,72.66
2019-02-12T21:43:06.072Z,72.57
2019-02-12T21:45:39.845Z,72.65
2019-02-12T21:48:12.041Z,72.66
2019-02-12T21:50:44.263Z,72.83
2019-02-12T21:53:16.482Z,72.80
2019-02-12T21:55:48.559Z,72.79
2019-02-12T21:58:20.713Z,72.81
2019-02-12T22:00:53.092Z,72.82
2019-02-12T22:03:25.336Z,72.84
2019-02-12T22:05:57.444Z,72.84
2019-02-12T22:08:30.784Z,72.82
2019-02-12T22:11:03.007Z,72.85
2019-02-12T22:13:35.202Z,72.89
2019-02-12T22:16:07.355Z,72.79
2019-02-12T22:18:39.512Z,72.78
2019-02-12T22:21:11.625Z,72.85
2019-02-12T22:23:47.334Z,72.84
2019-02-12T22:26:19.579Z,72.78
2019-02-12T22:28:52.762Z,72.87
2019-02-12T22:31:24.776Z,72.92
2019-02-12T22:33:56.916Z,72.94
2019-02-12T22:36:29.127Z,72.97
2019-02-12T22:39:01.375Z,72.98
2019-02-12T22:41:34.829Z,72.98
2019-02-12T22:44:07.051Z,72.91
2019-02-12T22:46:39.311Z,72.91
2019-02-12T22:49:11.448Z,72.83
2019-02-12T22:51:43.653Z,72.92
2019-02-12T22:54:15.863Z,72.92
2019-02-12T22:56:47.927Z,72.87
2019-02-12T22:59:20.212Z,72.86
2019-02-12T23:01:52.269Z,72.82
2019-02-12T23:04:24.498Z,72.75
2019-02-12T23:06:56.612Z,72.89
2019-02-12T23:09:28.760Z,72.88
2019-02-12T23:12:03.176Z,72.85
2019-02-12T23:14:35.479Z,72.86
2019-02-12T23:17:07.643Z,72.77
2019-02-12T23:19:40.172Z,72.76
2019-02-12T23:22:13.463Z,72.89
2019-02-12T23:24:45.769Z,72.83
2019-02-12T23:27:17.804Z,72.81
2019-02-12T23:29:50.295Z,72.82
2019-02-12T23:32:22.429Z,72.89
2019-02-12T23:34:57.151Z,72.83
2019-02-12T23:37:28.554Z,72.90
2019-02-12T23:40:00.959Z,72.86
2019-02-12T23:42:33.279Z,72.69
2019-02-12T23:45:09.104Z,72.42
2019-02-12T23:47:41.344Z,72.59
2019-02-12T23:50:13.699Z,72.62
2019-02-12T23:52:46.123Z,72.76
2019-02-12T23:55:18.266Z,72.83
2019-02-12T23:57:50.523Z,73.04
